Huvudsida
METAR-TAF:

METAR-TAF

Flygplatser :

Ouagadougou Airport

Ouagadougou, Burkina Faso

latitud: 12-21N, longitud: 001-31W, höjd: 316 m

Aktuellt väderrapport

Denna rapport gjordes för 54 minuter sedan, klockan 20:00 UTC
Vind 2 kt från ost/nordost
Temperatur 28°C
Fuktighet 40%
Tryck 1012 hPa
Sikt: 8000 m

METAR: DFFD 162000Z 06002KT 8000 NSC 28/13 Q1012 NOSIG

Tid: 20:54 (20:54 UTC)

Väderprognos

Denna rapport gjordes för 3 timmar och 54 minuter sedan, klockan 17:00 UTC
Prognos gäller från 16 kl. 18 UTC till 17 kl. 24 UTC
Vind 8 kt varierande vindriktning
Sikt: 8000 m
Temporärt
från 16 kl. 18 UTC till 16 kl. 20 UTC
Sikt: 4000 m
torrdis
Temporärt
från 17 kl. 06 UTC till 17 kl. 10 UTC
Sikt: 2000 m
torrdis

TAF: DFFD 161700Z 1618/1724 VRB08KT 8000 NSC TEMPO 1618/1620 4000 HZ TEMPO 1706/1710 2000 HZ

Aktuella väderrapporter och prognoser från 4000 flygplatser (METAR- och TAF-rapporter).

De tillgängliga stationerna syns som gula och röda prickar på kartan.

För musen över prickarna för att se namnen på stationerna.

Klicka sedan för att få väderrapporter och prognoser.

För att ändra kartan: Klicka på de gröna knapparna med ett svart kors på för att zooma in; den gröna knappen med ett streck på för att zooma ut; eller på de gröna pilarna för angränsande kartor.


METAR-TAF: